Time;durP1;ratioP1;P1;durP2;ratioP2;P2;SDS_P1;SDS_P2;PMS_P1;PMS_P2;Temp;Humidity;BMP_temperature;BMP_pressure;BME280_temperature;BME280_humidity;BME280_pressure;Samples;Min_cycle;Max_cycle;Signal;HPM_P1;HPM_P2
2023/09/23 00:02:09;;;;;;;5.80;4.90;;;15.40;99.90;;;;;;5037157;28;20209;-80
2023/09/23 00:04:36;;;;;;;6.30;5.80;;;15.40;99.90;;;;;;5039144;28;20208;-80
2023/09/23 00:07:04;;;;;;;7.60;6.93;;;15.40;99.90;;;;;;5039328;28;20205;-81
2023/09/23 00:09:31;;;;;;;7.40;6.75;;;15.30;99.90;;;;;;5034829;28;20200;-81
2023/09/23 00:12:00;;;;;;;5.75;5.25;;;15.30;99.90;;;;;;5026299;28;20254;-83
2023/09/23 00:14:28;;;;;;;9.02;6.65;;;15.40;99.90;;;;;;5027591;28;20208;-82
2023/09/23 00:16:55;;;;;;;7.90;7.10;;;15.40;99.90;;;;;;5024256;28;20225;-82
2023/09/23 00:19:22;;;;;;;8.45;7.53;;;15.40;99.90;;;;;;5032199;28;20266;-81
2023/09/23 00:21:49;;;;;;;7.03;6.35;;;15.50;99.90;;;;;;5026047;28;20298;-81
2023/09/23 00:24:16;;;;;;;8.05;7.35;;;15.40;99.90;;;;;;5025863;28;20280;-82
2023/09/23 00:26:43;;;;;;;8.35;7.47;;;15.40;99.90;;;;;;5027458;28;20264;-80
2023/09/23 00:29:12;;;;;;;12.13;7.97;;;15.40;99.90;;;;;;5017973;28;20193;-83
2023/09/23 00:31:39;;;;;;;8.25;7.60;;;15.40;99.90;;;;;;5021265;28;20256;-80
2023/09/23 00:34:06;;;;;;;8.68;7.75;;;15.40;99.90;;;;;;5026373;28;20199;-82
2023/09/23 00:36:33;;;;;;;10.13;9.25;;;15.30;99.90;;;;;;5023714;28;20643;-80
2023/09/23 00:39:03;;;;;;;11.68;9.88;;;15.30;99.90;;;;;;5028739;28;20209;-81
2023/09/23 00:41:30;;;;;;;11.30;10.20;;;15.20;99.90;;;;;;5028693;28;20257;-81
2023/09/23 00:43:57;;;;;;;9.70;8.90;;;15.20;99.90;;;;;;5025452;28;20236;-82
2023/09/23 00:46:26;;;;;;;11.43;10.00;;;15.00;99.90;;;;;;5026158;28;20699;-81
2023/09/23 00:48:54;;;;;;;10.55;9.75;;;14.90;99.90;;;;;;5026323;28;20204;-82
2023/09/23 00:51:21;;;;;;;10.90;9.90;;;14.80;99.90;;;;;;5028849;28;20235;-81
2023/09/23 00:53:48;;;;;;;10.32;9.55;;;14.80;99.90;;;;;;5027257;28;20201;-81
2023/09/23 00:56:19;;;;;;;9.43;8.48;;;14.80;99.90;;;;;;5025647;28;20265;-82
2023/09/23 00:58:46;;;;;;;10.73;9.60;;;14.80;99.90;;;;;;5027153;28;20178;-81
2023/09/23 01:01:14;;;;;;;10.77;9.68;;;14.80;99.90;;;;;;5028903;28;20224;-80
2023/09/23 01:03:43;;;;;;;10.77;9.85;;;14.90;99.90;;;;;;5026246;28;20218;-82
2023/09/23 01:06:15;;;;;;;11.95;10.63;;;14.90;99.90;;;;;;5025015;28;20273;-82
2023/09/23 01:08:44;;;;;;;11.40;10.30;;;14.80;99.90;;;;;;5020496;28;20201;-83
2023/09/23 01:11:12;;;;;;;14.70;10.43;;;14.90;99.90;;;;;;5019982;28;20221;-83
2023/09/23 01:13:42;;;;;;;13.52;12.23;;;14.80;99.90;;;;;;5026737;28;20269;-82
2023/09/23 01:16:26;;;;;;;12.35;11.15;;;14.80;99.90;;;;;;5022290;28;20209;-81
2023/09/23 01:18:55;;;;;;;13.80;12.45;;;14.60;99.90;;;;;;5022100;28;20201;-80
2023/09/23 01:21:22;;;;;;;13.90;11.52;;;14.70;99.90;;;;;;5022414;28;20245;-82
2023/09/23 01:23:50;;;;;;;13.90;12.52;;;14.60;99.90;;;;;;5028163;28;20243;-81
2023/09/23 01:26:17;;;;;;;11.77;10.52;;;14.60;99.90;;;;;;5021404;28;20231;-80
2023/09/23 01:28:45;;;;;;;18.73;13.05;;;14.70;99.90;;;;;;5025668;28;20255;-79
2023/09/23 01:31:12;;;;;;;14.52;13.13;;;14.80;99.90;;;;;;5024525;28;20220;-81
2023/09/23 01:33:39;;;;;;;14.20;12.85;;;14.60;99.90;;;;;;5021404;28;20267;-81
2023/09/23 01:36:06;;;;;;;17.80;13.68;;;14.60;99.90;;;;;;5031633;28;20271;-80
2023/09/23 01:38:33;;;;;;;15.00;13.70;;;14.60;99.90;;;;;;5035445;28;20204;-80
2023/09/23 01:41:02;;;;;;;18.23;14.50;;;14.60;99.90;;;;;;5033373;28;20221;-81
2023/09/23 01:43:29;;;;;;;16.30;14.68;;;14.50;99.90;;;;;;5027141;28;20229;-80
2023/09/23 01:46:02;;;;;;;17.55;15.85;;;14.50;99.90;;;;;;5025057;28;20205;-81
2023/09/23 01:48:29;;;;;;;17.00;15.45;;;14.50;99.90;;;;;;5032092;28;20208;-80
2023/09/23 01:50:57;;;;;;;19.75;17.80;;;14.50;99.90;;;;;;5027696;28;20217;-82
2023/09/23 01:53:25;;;;;;;17.85;16.00;;;14.50;99.90;;;;;;5034591;28;20192;-80
2023/09/23 01:55:52;;;;;;;16.42;14.73;;;14.50;99.90;;;;;;5028694;28;20215;-82
2023/09/23 01:58:22;;;;;;;15.85;14.30;;;14.50;99.90;;;;;;5025348;28;20205;-81
2023/09/23 02:00:50;;;;;;;16.70;15.15;;;14.50;99.90;;;;;;5032808;28;20224;-82
2023/09/23 02:03:17;;;;;;;19.58;17.55;;;14.60;99.90;;;;;;5031118;28;20235;-81
2023/09/23 02:05:44;;;;;;;19.63;15.95;;;14.60;99.90;;;;;;5029547;28;20209;-81
2023/09/23 02:08:11;;;;;;;17.38;15.75;;;14.60;99.90;;;;;;5027584;28;20201;-82
2023/09/23 02:10:38;;;;;;;18.65;16.90;;;14.50;99.90;;;;;;5026784;28;20339;-81
2023/09/23 02:13:04;;;;;;;18.45;16.73;;;14.50;99.90;;;;;;5025459;28;20251;-81
2023/09/23 02:15:33;;;;;;;17.67;16.08;;;14.50;99.90;;;;;;5028988;28;20256;-82
2023/09/23 02:18:00;;;;;;;17.77;15.98;;;14.40;99.90;;;;;;5023271;28;20542;-81
2023/09/23 02:20:28;;;;;;;18.17;16.42;;;14.40;99.90;;;;;;5027151;28;20237;-80
2023/09/23 02:22:55;;;;;;;18.00;16.30;;;14.50;99.90;;;;;;5024816;28;20573;-80
2023/09/23 02:25:24;;;;;;;15.60;14.02;;;14.60;99.90;;;;;;5022067;28;20272;-83
2023/09/23 02:27:51;;;;;;;18.00;16.40;;;14.40;99.90;;;;;;5026411;28;20627;-80
2023/09/23 02:30:18;;;;;;;18.60;16.73;;;14.40;99.90;;;;;;5027543;28;20239;-81
2023/09/23 02:32:48;;;;;;;16.52;15.10;;;14.30;99.90;;;;;;5026684;28;20617;-81
2023/09/23 02:35:16;;;;;;;17.52;15.82;;;14.40;99.90;;;;;;5019900;28;20264;-81
2023/09/23 02:37:44;;;;;;;17.83;16.02;;;14.20;99.90;;;;;;5025477;28;20274;-82
2023/09/23 02:40:13;;;;;;;19.27;17.17;;;14.20;99.90;;;;;;5026282;28;20255;-82
2023/09/23 02:42:42;;;;;;;17.75;15.85;;;14.20;99.90;;;;;;5023853;28;20582;-82
2023/09/23 02:45:10;;;;;;;18.13;16.33;;;14.10;99.90;;;;;;5031180;28;20239;-81
2023/09/23 02:47:39;;;;;;;19.30;16.20;;;14.00;99.90;;;;;;5023084;28;20687;-81
2023/09/23 02:50:09;;;;;;;19.05;16.90;;;14.00;99.90;;;;;;5026948;28;20188;-82
2023/09/23 02:52:38;;;;;;;21.50;17.73;;;14.00;99.90;;;;;;5032952;28;20204;-80
2023/09/23 02:55:07;;;;;;;18.65;16.85;;;14.10;99.90;;;;;;5031495;28;20189;-80
2023/09/23 02:57:36;;;;;;;19.40;17.52;;;14.10;99.90;;;;;;5030214;28;20210;-80
2023/09/23 03:00:13;;;;;;;15.15;13.85;;;14.20;99.90;;;;;;5028534;28;20204;-81
2023/09/23 03:02:40;;;;;;;20.55;16.38;;;14.10;99.90;;;;;;5028111;28;20268;-81
2023/09/23 03:05:09;;;;;;;19.73;16.15;;;14.10;99.90;;;;;;5026975;28;20245;-81
2023/09/23 03:07:39;;;;;;;23.60;17.15;;;14.10;99.90;;;;;;5028029;28;20247;-80
2023/09/23 03:10:12;;;;;;;18.58;16.77;;;14.10;99.90;;;;;;5024652;28;20288;-79
2023/09/23 03:12:43;;;;;;;18.38;15.48;;;14.10;99.90;;;;;;5029929;28;20215;-81
2023/09/23 03:15:15;;;;;;;17.20;15.60;;;14.10;99.90;;;;;;5028116;28;20253;-81
2023/09/23 03:17:50;;;;;;;18.15;16.35;;;14.10;99.90;;;;;;5018555;28;20205;-80
2023/09/23 03:20:21;;;;;;;16.67;15.07;;;14.10;99.90;;;;;;5032290;28;20278;-79
2023/09/23 03:22:48;;;;;;;17.85;16.05;;;14.10;99.90;;;;;;5026959;28;20206;-80
2023/09/23 03:25:19;;;;;;;16.85;15.07;;;14.10;99.90;;;;;;5032222;28;20235;-80
2023/09/23 03:27:47;;;;;;;18.40;16.33;;;14.10;99.90;;;;;;5031812;28;20193;-81
2023/09/23 03:30:14;;;;;;;18.17;16.48;;;14.00;99.90;;;;;;5029458;28;20202;-81
2023/09/23 03:32:41;;;;;;;17.48;15.77;;;14.00;99.90;;;;;;5030106;28;20203;-80
2023/09/23 03:35:14;;;;;;;16.55;14.60;;;14.00;99.90;;;;;;5029035;28;20257;-80
2023/09/23 03:37:43;;;;;;;17.65;15.95;;;14.00;99.90;;;;;;5035989;28;20181;-80
2023/09/23 03:40:14;;;;;;;18.17;16.40;;;14.00;99.90;;;;;;5039057;28;20204;-80
2023/09/23 03:42:41;;;;;;;17.42;15.50;;;14.00;99.90;;;;;;5036501;28;20181;-80
2023/09/23 03:45:10;;;;;;;19.27;16.98;;;14.20;99.90;;;;;;5032475;28;20233;-81
2023/09/23 03:47:37;;;;;;;17.20;15.30;;;14.10;99.90;;;;;;5027779;28;20200;-79
2023/09/23 03:50:04;;;;;;;16.08;14.50;;;14.10;99.90;;;;;;5018301;28;20284;-81
2023/09/23 03:52:32;;;;;;;15.20;13.60;;;14.10;99.90;;;;;;5026598;28;20264;-82
2023/09/23 03:55:00;;;;;;;18.02;16.33;;;14.20;99.90;;;;;;5023912;28;20201;-81
2023/09/23 03:57:27;;;;;;;18.45;16.85;;;14.30;99.90;;;;;;5028142;28;20228;-81
2023/09/23 03:59:54;;;;;;;19.25;17.25;;;14.20;99.90;;;;;;5031819;28;20257;-82
2023/09/23 04:02:22;;;;;;;18.60;15.90;;;14.10;99.90;;;;;;5034831;28;20215;-82
2023/09/23 04:04:53;;;;;;;19.75;16.70;;;14.00;99.90;;;;;;5022470;28;20239;-80
2023/09/23 04:07:20;;;;;;;19.30;17.50;;;14.00;99.90;;;;;;5024053;28;20259;-80
2023/09/23 04:09:48;;;;;;;17.88;16.17;;;14.00;99.90;;;;;;5024292;28;20209;-80
2023/09/23 04:12:17;;;;;;;16.45;14.77;;;14.00;99.90;;;;;;5029705;28;20207;-81
2023/09/23 04:14:44;;;;;;;18.00;16.10;;;14.00;99.90;;;;;;5028268;28;20388;-80
2023/09/23 04:17:11;;;;;;;18.80;15.68;;;14.00;99.90;;;;;;5028716;28;20225;-79
2023/09/23 04:19:38;;;;;;;17.77;15.88;;;14.10;99.90;;;;;;5029104;28;20248;-81
2023/09/23 04:22:05;;;;;;;17.73;16.05;;;14.10;99.90;;;;;;5029096;28;20248;-80
2023/09/23 04:24:32;;;;;;;15.80;14.30;;;14.10;99.90;;;;;;5031023;28;20497;-83
2023/09/23 04:26:59;;;;;;;19.67;16.95;;;14.10;99.90;;;;;;5030552;28;20300;-81
2023/09/23 04:29:30;;;;;;;16.42;14.23;;;14.10;99.90;;;;;;5027633;28;20224;-81
2023/09/23 04:31:57;;;;;;;15.10;13.60;;;14.10;99.90;;;;;;5030470;28;20217;-81
2023/09/23 04:34:24;;;;;;;15.88;14.23;;;14.20;99.90;;;;;;5024481;28;20208;-81
2023/09/23 04:36:51;;;;;;;15.00;13.63;;;14.10;99.90;;;;;;5028978;28;20205;-80
2023/09/23 04:39:19;;;;;;;14.40;12.98;;;14.10;99.90;;;;;;5025540;28;20280;-81
2023/09/23 04:41:46;;;;;;;16.55;13.73;;;14.00;99.90;;;;;;5021924;28;20710;-83
2023/09/23 04:44:13;;;;;;;10.88;9.77;;;14.20;99.90;;;;;;5027445;28;20270;-81
2023/09/23 04:46:41;;;;;;;10.38;9.38;;;14.20;99.90;;;;;;5024750;28;20631;-80
2023/09/23 04:49:09;;;;;;;10.80;9.80;;;14.10;99.90;;;;;;5032319;28;20208;-81
2023/09/23 04:51:36;;;;;;;8.85;8.10;;;14.10;99.90;;;;;;5030050;28;20224;-82
2023/09/23 04:54:03;;;;;;;7.00;6.40;;;14.00;99.90;;;;;;5026994;28;20219;-81
2023/09/23 04:56:30;;;;;;;7.57;6.82;;;14.00;99.90;;;;;;5027345;28;20196;-81
2023/09/23 04:58:58;;;;;;;6.85;6.15;;;14.00;99.90;;;;;;5027153;28;20276;-81
2023/09/23 05:01:26;;;;;;;7.50;6.80;;;14.00;99.90;;;;;;5026003;28;20228;-82
2023/09/23 05:03:55;;;;;;;8.30;6.93;;;14.10;99.90;;;;;;5029475;28;20221;-81
2023/09/23 05:06:22;;;;;;;9.57;8.57;;;14.10;99.90;;;;;;5026389;28;20235;-80
2023/09/23 05:08:49;;;;;;;9.38;8.48;;;14.00;99.90;;;;;;5025586;28;20268;-82
2023/09/23 05:11:17;;;;;;;8.48;7.70;;;14.00;99.90;;;;;;5030355;28;20255;-80
2023/09/23 05:13:43;;;;;;;9.68;8.50;;;14.00;99.90;;;;;;5026811;28;20232;-79
2023/09/23 05:16:10;;;;;;;9.27;8.48;;;13.90;99.90;;;;;;5021017;28;20284;-80
2023/09/23 05:18:38;;;;;;;11.48;10.40;;;14.00;99.90;;;;;;5028919;28;20395;-81
2023/09/23 05:21:06;;;;;;;9.60;8.70;;;14.00;99.90;;;;;;5024684;28;20232;-82
2023/09/23 05:23:33;;;;;;;11.25;8.50;;;14.00;99.90;;;;;;5031047;28;20232;-80
2023/09/23 05:26:00;;;;;;;9.05;8.25;;;13.90;99.90;;;;;;5028729;28;20236;-79
2023/09/23 05:28:27;;;;;;;9.18;8.27;;;13.90;99.90;;;;;;5026319;28;20189;-80
2023/09/23 05:30:54;;;;;;;9.35;8.45;;;14.00;99.90;;;;;;5024694;28;20225;-81
2023/09/23 05:33:21;;;;;;;15.07;7.97;;;13.90;99.90;;;;;;5023351;28;20208;-82
2023/09/23 05:35:48;;;;;;;8.68;7.88;;;13.90;99.90;;;;;;5022640;28;20197;-82
2023/09/23 05:38:17;;;;;;;8.38;7.43;;;14.00;99.90;;;;;;5025105;28;20497;-82
2023/09/23 05:40:44;;;;;;;8.98;8.18;;;13.90;99.90;;;;;;5024705;28;20221;-80
2023/09/23 05:43:11;;;;;;;9.30;7.30;;;13.90;99.90;;;;;;5024421;28;20228;-82
2023/09/23 05:45:38;;;;;;;6.55;5.88;;;13.90;99.90;;;;;;5015787;28;20232;-82
2023/09/23 05:48:06;;;;;;;7.30;6.60;;;13.90;99.90;;;;;;5023982;28;20205;-84
2023/09/23 05:50:33;;;;;;;7.25;5.72;;;14.00;99.90;;;;;;5029923;28;20248;-85
2023/09/23 05:52:59;;;;;;;7.53;6.13;;;14.00;99.90;;;;;;5021875;28;20233;-83
2023/09/23 05:55:28;;;;;;;5.35;4.85;;;14.10;99.90;;;;;;5020711;28;20236;-83
2023/09/23 05:57:55;;;;;;;5.78;5.18;;;14.00;99.90;;;;;;5025822;28;20212;-81
2023/09/23 06:00:22;;;;;;;5.55;5.05;;;14.20;99.90;;;;;;5030603;28;20232;-84
2023/09/23 06:02:49;;;;;;;5.20;4.80;;;14.10;99.90;;;;;;5012196;28;20975;-84
2023/09/23 06:05:20;;;;;;;4.78;4.28;;;14.20;99.90;;;;;;5024574;28;20221;-83
2023/09/23 06:07:47;;;;;;;4.28;3.90;;;14.40;99.90;;;;;;5029205;28;20198;-82
2023/09/23 06:10:15;;;;;;;4.75;3.72;;;14.40;99.90;;;;;;5033724;28;20218;-84
2023/09/23 06:12:43;;;;;;;5.97;4.72;;;14.50;99.90;;;;;;5028121;28;20231;-82
2023/09/23 06:15:10;;;;;;;5.63;4.55;;;14.50;99.90;;;;;;5022602;28;20265;-83
2023/09/23 06:17:42;;;;;;;5.25;4.35;;;14.50;99.90;;;;;;5024668;28;20212;-84
2023/09/23 06:20:10;;;;;;;4.97;4.47;;;14.50;99.90;;;;;;5023137;28;20224;-85
2023/09/23 06:22:38;;;;;;;5.93;4.90;;;14.40;99.90;;;;;;5027916;28;20216;-85
2023/09/23 06:25:06;;;;;;;6.65;5.32;;;14.40;99.90;;;;;;5022021;28;20257;-84
2023/09/23 06:27:33;;;;;;;5.10;4.65;;;14.40;99.90;;;;;;5019109;28;20240;-83
2023/09/23 06:30:02;;;;;;;5.13;4.63;;;14.50;99.90;;;;;;5024268;28;20216;-84
2023/09/23 06:32:29;;;;;;;6.22;5.63;;;14.50;99.90;;;;;;5026733;28;20185;-85
2023/09/23 06:34:56;;;;;;;9.60;8.38;;;14.60;99.90;;;;;;5027363;28;20212;-83
2023/09/23 06:37:23;;;;;;;7.25;6.25;;;14.50;99.90;;;;;;5024494;28;20224;-85
2023/09/23 06:39:50;;;;;;;7.82;7.07;;;14.50;99.90;;;;;;5018502;28;20197;-83
2023/09/23 06:42:17;;;;;;;8.98;6.63;;;14.50;99.90;;;;;;5024601;28;20240;-84
2023/09/23 06:44:45;;;;;;;7.35;6.63;;;14.50;99.90;;;;;;5026312;28;20221;-83
2023/09/23 06:47:13;;;;;;;9.07;7.95;;;14.40;99.90;;;;;;5030743;28;20205;-86
2023/09/23 06:49:40;;;;;;;8.35;7.35;;;14.50;99.90;;;;;;5036945;28;20205;-86
2023/09/23 06:52:11;;;;;;;8.50;6.97;;;15.00;99.90;;;;;;5034344;28;20241;-85
2023/09/23 06:54:38;;;;;;;10.30;7.45;;;15.50;99.90;;;;;;5031689;28;20182;-85
2023/09/23 06:57:05;;;;;;;8.35;7.55;;;16.30;99.90;;;;;;5033039;28;20213;-84
2023/09/23 06:59:32;;;;;;;10.40;7.00;;;16.80;99.90;;;;;;5034550;28;20230;-85
2023/09/23 07:01:59;;;;;;;13.27;9.73;;;16.80;99.90;;;;;;5029276;28;20624;-84
2023/09/23 07:04:28;;;;;;;9.55;8.63;;;16.40;99.90;;;;;;5034409;28;20463;-84
2023/09/23 07:06:55;;;;;;;10.82;9.73;;;15.90;99.90;;;;;;5039636;28;20301;-86
2023/09/23 07:09:21;;;;;;;12.98;10.68;;;15.80;99.90;;;;;;5039907;28;20188;-87
2023/09/23 07:11:48;;;;;;;9.60;8.43;;;15.40;99.90;;;;;;5040566;28;20237;-85
2023/09/23 07:14:15;;;;;;;10.63;9.52;;;15.60;99.90;;;;;;5033030;28;20185;-84
2023/09/23 07:16:43;;;;;;;11.98;9.15;;;16.10;99.90;;;;;;5030992;28;20192;-83
2023/09/23 07:19:10;;;;;;;9.83;8.77;;;16.50;99.90;;;;;;5039534;28;20190;-85
2023/09/23 07:21:38;;;;;;;9.10;8.20;;;16.70;99.90;;;;;;5034298;28;20460;-86
2023/09/23 07:24:05;;;;;;;10.43;9.43;;;17.30;99.90;;;;;;5031663;28;20441;-85
2023/09/23 07:26:32;;;;;;;9.30;8.40;;;17.70;99.90;;;;;;5027282;28;20436;-83
2023/09/23 07:28:59;;;;;;;13.30;9.90;;;18.00;99.90;;;;;;5028294;28;20491;-83
2023/09/23 07:31:26;;;;;;;10.30;8.60;;;18.10;99.90;;;;;;5039744;28;20460;-84
2023/09/23 07:33:53;;;;;;;10.83;9.63;;;17.70;99.90;;;;;;5038145;28;20427;-82
2023/09/23 07:36:20;;;;;;;12.10;11.00;;;17.70;99.90;;;;;;5036417;28;20457;-85
2023/09/23 07:38:48;;;;;;;13.30;12.00;;;17.30;99.90;;;;;;5036549;28;20469;-84
2023/09/23 07:41:17;;;;;;;13.80;11.50;;;16.80;99.90;;;;;;5037624;28;20468;-83
2023/09/23 07:43:43;;;;;;;10.33;9.33;;;17.20;99.90;;;;;;5029648;28;20431;-85
2023/09/23 07:46:10;;;;;;;11.40;10.30;;;17.80;99.90;;;;;;5026424;28;20492;-84
2023/09/23 07:48:37;;;;;;;11.73;10.53;;;18.00;99.90;;;;;;5033004;28;20467;-85
2023/09/23 07:51:04;;;;;;;10.47;9.30;;;17.80;99.90;;;;;;5034446;28;20474;-84
2023/09/23 07:53:31;;;;;;;11.17;10.07;;;18.30;99.90;;;;;;5033032;28;20474;-83
2023/09/23 07:55:59;;;;;;;11.67;10.50;;;18.90;99.90;;;;;;5034944;28;20438;-86
2023/09/23 07:58:26;;;;;;;11.43;10.33;;;19.90;99.90;;;;;;5038547;28;20463;-84
2023/09/23 08:00:54;;;;;;;11.33;10.20;;;20.70;99.90;;;;;;5031496;28;20542;-83
2023/09/23 08:03:21;;;;;;;12.87;11.57;;;21.50;99.90;;;;;;5034190;28;20462;-84
2023/09/23 08:05:48;;;;;;;10.43;9.33;;;21.40;99.90;;;;;;5033801;28;20489;-85
2023/09/23 08:08:14;;;;;;;11.33;10.23;;;21.50;99.90;;;;;;5022117;28;20484;-85
2023/09/23 08:10:42;;;;;;;14.93;11.53;;;21.50;99.90;;;;;;5031615;28;20492;-85
2023/09/23 08:13:11;;;;;;;11.63;10.57;;;21.40;99.90;;;;;;5032163;28;20448;-84
2023/09/23 08:15:38;;;;;;;11.43;10.33;;;21.80;99.70;;;;;;5030867;28;20439;-85
2023/09/23 08:18:05;;;;;;;12.07;10.87;;;22.10;98.10;;;;;;5032976;28;20464;-84
2023/09/23 08:20:32;;;;;;;10.07;9.10;;;22.60;96.90;;;;;;5025677;28;20486;-84
2023/09/23 08:22:59;;;;;;;10.87;9.87;;;22.70;96.80;;;;;;5036380;28;20483;-85
2023/09/23 08:25:26;;;;;;;11.70;10.57;;;21.90;97.40;;;;;;5033938;28;20480;-85
2023/09/23 08:27:53;;;;;;;13.87;12.47;;;21.10;99.60;;;;;;5034994;28;20510;-84
2023/09/23 08:30:22;;;;;;;15.17;13.70;;;20.00;99.90;;;;;;5033805;28;20571;-85
2023/09/23 08:32:49;;;;;;;19.50;14.37;;;18.90;99.90;;;;;;5030349;28;20458;-85
2023/09/23 08:35:16;;;;;;;16.30;14.60;;;17.90;99.90;;;;;;5031870;28;20476;-84
2023/09/23 08:37:45;;;;;;;15.23;13.63;;;17.60;99.90;;;;;;5033331;28;20530;-85
2023/09/23 08:40:12;;;;;;;14.77;13.33;;;17.40;99.90;;;;;;5026972;28;20474;-84
2023/09/23 08:42:40;;;;;;;14.73;13.23;;;17.40;99.90;;;;;;5035769;28;20458;-84
2023/09/23 08:45:09;;;;;;;14.32;13.00;;;17.30;99.90;;;;;;5033404;28;20467;-84
2023/09/23 08:47:38;;;;;;;21.50;14.47;;;17.30;99.90;;;;;;5022818;28;20213;-85
2023/09/23 08:50:08;;;;;;;17.07;15.30;;;17.00;99.90;;;;;;5033340;28;20440;-84
2023/09/23 08:52:35;;;;;;;18.30;16.60;;;17.10;99.90;;;;;;5033259;28;20444;-85
2023/09/23 08:55:03;;;;;;;19.57;17.30;;;17.00;99.90;;;;;;5033070;28;20444;-86
2023/09/23 08:57:30;;;;;;;17.40;15.63;;;17.00;99.90;;;;;;5032601;28;20498;-86
2023/09/23 08:59:57;;;;;;;19.58;17.58;;;16.90;99.90;;;;;;5031781;28;20447;-86
2023/09/23 09:02:25;;;;;;;21.30;17.70;;;16.60;99.90;;;;;;5023332;28;20207;-85
2023/09/23 09:04:55;;;;;;;18.37;16.47;;;16.70;99.90;;;;;;5030343;28;20518;-84
2023/09/23 09:07:25;;;;;;;19.37;17.27;;;16.90;99.90;;;;;;5032542;28;20457;-85
2023/09/23 09:09:52;;;;;;;18.05;16.45;;;16.90;99.90;;;;;;5030575;28;20429;-85
2023/09/23 09:12:19;;;;;;;17.40;15.68;;;16.40;99.90;;;;;;5032649;28;20216;-85
2023/09/23 09:14:50;;;;;;;16.63;15.02;;;16.20;99.90;;;;;;5036892;28;20191;-86
2023/09/23 09:17:17;;;;;;;16.92;14.15;;;16.10;99.90;;;;;;5035515;28;20646;-84
2023/09/23 09:19:44;;;;;;;15.82;14.27;;;16.00;99.90;;;;;;5032143;28;20213;-84
2023/09/23 09:22:14;;;;;;;16.52;14.82;;;16.10;99.90;;;;;;5033550;28;20201;-84
2023/09/23 09:24:41;;;;;;;16.20;14.57;;;16.10;99.90;;;;;;5019887;28;20211;-83
2023/09/23 09:27:12;;;;;;;15.07;13.40;;;16.20;99.90;;;;;;5030956;28;20478;-83
2023/09/23 09:29:40;;;;;;;13.87;12.50;;;16.30;99.90;;;;;;5033677;28;20459;-84
2023/09/23 09:32:09;;;;;;;18.90;12.37;;;16.60;99.90;;;;;;5028861;28;20468;-84
2023/09/23 09:34:45;;;;;;;12.80;11.50;;;16.90;99.90;;;;;;5035055;28;20459;-84
2023/09/23 09:37:14;;;;;;;12.83;11.43;;;17.90;99.90;;;;;;5033248;28;20463;-84
2023/09/23 09:39:51;;;;;;;13.23;12.03;;;18.20;99.90;;;;;;5036140;28;20440;-85
2023/09/23 09:42:23;;;;;;;13.10;11.70;;;18.00;99.90;;;;;;5035866;28;20443;-84
2023/09/23 09:44:54;;;;;;;12.03;10.83;;;17.90;99.90;;;;;;5031652;28;20445;-85
2023/09/23 09:47:21;;;;;;;11.77;10.67;;;18.10;99.90;;;;;;5028467;28;20471;-83
2023/09/23 09:49:50;;;;;;;12.67;11.37;;;17.90;99.90;;;;;;5031229;28;20749;-84
2023/09/23 09:52:21;;;;;;;12.23;10.90;;;17.70;99.90;;;;;;5030473;28;20448;-86
2023/09/23 09:54:52;;;;;;;12.47;9.80;;;17.70;99.90;;;;;;5025472;28;20452;-85
2023/09/23 09:57:20;;;;;;;11.40;10.20;;;17.80;99.90;;;;;;5021921;28;20486;-85
2023/09/23 09:59:46;;;;;;;13.87;10.83;;;18.00;99.90;;;;;;5028800;28;20455;-84
2023/09/23 10:02:15;;;;;;;11.03;10.03;;;18.00;99.90;;;;;;5030435;28;20458;-83
2023/09/23 10:04:46;;;;;;;11.67;10.53;;;17.90;99.90;;;;;;5021547;28;20494;-85
2023/09/23 10:07:14;;;;;;;13.90;12.10;;;17.70;99.90;;;;;;5026136;28;20467;-85
2023/09/23 10:09:53;;;;;;;10.43;9.43;;;17.50;99.90;;;;;;5030029;28;20442;-86
2023/09/23 10:12:25;;;;;;;14.90;12.68;;;17.20;99.90;;;;;;5029872;28;20452;-84
2023/09/23 10:14:56;;;;;;;11.90;10.80;;;17.00;99.90;;;;;;5022669;28;20202;-84
2023/09/23 10:17:31;;;;;;;11.88;10.75;;;16.80;99.90;;;;;;5030602;28;20465;-83
2023/09/23 10:19:58;;;;;;;13.43;11.17;;;16.80;99.90;;;;;;5029496;28;20206;-86
2023/09/23 10:22:29;;;;;;;13.80;9.70;;;16.80;99.90;;;;;;5029102;28;20530;-85
2023/09/23 10:25:06;;;;;;;11.70;10.55;;;17.00;99.90;;;;;;5026664;28;20739;-84
2023/09/23 10:27:36;;;;;;;13.45;10.88;;;17.10;99.90;;;;;;5024413;28;20268;-85
2023/09/23 10:30:05;;;;;;;15.25;11.70;;;17.10;99.90;;;;;;5029451;28;20311;-84
2023/09/23 10:32:32;;;;;;;11.80;9.53;;;17.10;99.90;;;;;;5033689;28;20192;-86
2023/09/23 10:35:00;;;;;;;11.87;9.93;;;17.20;99.90;;;;;;5032723;28;20446;-85
2023/09/23 10:37:29;;;;;;;10.20;9.10;;;17.20;99.90;;;;;;5032630;28;20449;-85
2023/09/23 10:39:56;;;;;;;9.50;8.60;;;17.20;99.90;;;;;;5036545;28;20461;-85
2023/09/23 10:42:24;;;;;;;10.57;8.07;;;17.20;99.90;;;;;;5036797;28;20214;-85
2023/09/23 10:44:51;;;;;;;9.63;7.97;;;17.20;99.90;;;;;;5024330;28;20457;-82
2023/09/23 10:47:19;;;;;;;10.38;9.38;;;17.20;99.90;;;;;;5028219;28;20218;-85
2023/09/23 10:49:45;;;;;;;9.60;7.80;;;17.10;99.90;;;;;;5033767;28;20226;-85
2023/09/23 10:52:13;;;;;;;10.57;9.37;;;17.10;99.90;;;;;;5030399;28;20218;-85
2023/09/23 10:54:40;;;;;;;9.57;8.13;;;17.00;99.90;;;;;;5028913;28;20436;-85
2023/09/23 10:57:07;;;;;;;11.40;10.17;;;16.90;99.90;;;;;;5026442;28;20461;-85
2023/09/23 10:59:36;;;;;;;9.50;8.50;;;16.90;99.90;;;;;;5029176;28;20435;-85
2023/09/23 11:02:05;;;;;;;13.30;9.70;;;16.80;99.90;;;;;;5022697;28;20475;-84
2023/09/23 11:04:32;;;;;;;11.67;9.73;;;17.00;99.90;;;;;;5025284;28;20451;-84
2023/09/23 11:06:59;;;;;;;10.70;9.67;;;16.90;99.90;;;;;;5032794;28;20499;-85
2023/09/23 11:09:27;;;;;;;11.10;9.40;;;17.10;99.90;;;;;;5031901;28;20510;-84
2023/09/23 11:11:56;;;;;;;10.60;9.50;;;17.10;99.90;;;;;;5030271;28;20488;-85
2023/09/23 11:14:23;;;;;;;11.53;8.53;;;17.30;99.90;;;;;;5029410;28;20553;-85
2023/09/23 11:16:52;;;;;;;9.30;6.77;;;17.30;99.90;;;;;;5023935;28;21089;-85
2023/09/23 11:19:19;;;;;;;10.93;7.37;;;17.60;99.90;;;;;;5025545;28;20526;-84
2023/09/23 11:21:47;;;;;;;9.97;6.30;;;17.80;99.90;;;;;;5024806;28;20455;-83
2023/09/23 11:24:14;;;;;;;8.20;5.80;;;17.90;99.90;;;;;;5020181;28;20510;-85
2023/09/23 11:26:41;;;;;;;10.33;6.57;;;17.80;99.90;;;;;;5029386;28;20489;-84
2023/09/23 11:29:08;;;;;;;5.30;4.80;;;17.90;99.90;;;;;;5028089;28;20459;-84
2023/09/23 11:31:35;;;;;;;7.67;6.50;;;17.90;99.90;;;;;;5027401;28;20929;-84
2023/09/23 11:34:03;;;;;;;5.90;5.30;;;18.00;99.90;;;;;;5029784;28;20458;-85
2023/09/23 11:36:30;;;;;;;8.10;4.57;;;17.90;99.90;;;;;;5028291;28;20439;-83
2023/09/23 11:38:57;;;;;;;7.83;4.70;;;17.90;99.90;;;;;;5027856;28;20455;-83
2023/09/23 11:41:24;;;;;;;8.70;6.47;;;17.90;99.90;;;;;;5021853;28;20506;-84
2023/09/23 11:43:51;;;;;;;6.13;5.53;;;17.70;99.90;;;;;;5025912;28;20481;-85
2023/09/23 11:46:22;;;;;;;6.43;5.50;;;17.60;99.90;;;;;;5024906;28;20527;-84
2023/09/23 11:48:49;;;;;;;6.53;5.50;;;17.50;99.90;;;;;;5025403;28;20443;-82
2023/09/23 11:51:19;;;;;;;5.93;5.20;;;17.60;99.90;;;;;;5027948;28;20464;-84
2023/09/23 11:53:46;;;;;;;6.00;5.40;;;17.90;99.90;;;;;;5033900;28;20457;-85
2023/09/23 11:56:13;;;;;;;5.60;5.03;;;17.90;99.90;;;;;;5019547;28;20503;-84
2023/09/23 11:58:40;;;;;;;9.03;5.53;;;18.20;99.90;;;;;;5029760;28;20475;-84
2023/09/23 12:01:07;;;;;;;6.23;5.10;;;18.20;99.90;;;;;;5026238;28;20558;-83
2023/09/23 12:03:34;;;;;;;8.10;4.63;;;18.40;99.90;;;;;;5028202;28;20479;-84
2023/09/23 12:06:00;;;;;;;6.67;5.30;;;18.50;99.90;;;;;;5037063;28;20498;-85
2023/09/23 12:08:29;;;;;;;6.37;4.80;;;18.50;99.90;;;;;;5033303;28;20427;-85
2023/09/23 12:10:56;;;;;;;7.07;6.47;;;18.60;99.90;;;;;;5030717;28;20479;-83
2023/09/23 12:13:25;;;;;;;5.17;4.30;;;18.50;99.90;;;;;;5027654;28;20436;-85
2023/09/23 12:15:54;;;;;;;5.30;4.80;;;18.40;99.90;;;;;;5034241;28;20459;-84
2023/09/23 12:18:21;;;;;;;5.20;4.10;;;18.20;99.90;;;;;;5031832;28;20451;-84
2023/09/23 12:20:48;;;;;;;4.20;3.70;;;18.10;99.90;;;;;;5026955;28;20495;-84
2023/09/23 12:23:15;;;;;;;5.50;3.97;;;18.00;99.90;;;;;;5031876;28;20459;-84
2023/09/23 12:25:45;;;;;;;6.53;4.50;;;17.90;99.90;;;;;;5023869;28;20469;-85
2023/09/23 12:28:12;;;;;;;4.30;3.63;;;18.00;99.90;;;;;;5029705;28;20478;-85
2023/09/23 12:30:38;;;;;;;6.30;4.63;;;18.10;99.90;;;;;;5025450;28;20472;-85
2023/09/23 12:33:06;;;;;;;6.33;4.00;;;18.40;99.90;;;;;;5030974;28;20662;-87
2023/09/23 12:35:33;;;;;;;4.30;3.70;;;18.40;99.90;;;;;;5020240;28;20451;-85
2023/09/23 12:38:00;;;;;;;5.60;3.37;;;18.40;99.90;;;;;;5031118;28;20440;-86
2023/09/23 12:40:27;;;;;;;6.70;4.93;;;18.40;99.90;;;;;;5035357;28;20475;-84